Terminal Aerodrome Forecast
Issued by NWS

Home | Current Version | Previous Version | Text Only | Print | Product List | Glossary On
Versions: 1 2 3 4 5 6 7 8 9 10 11 12 13 14 15 16 17 18 19 20 21 22 23 24 25 26 27 28 29 30 31
000
FTUS41 KBOX 312322
TAFBED
TAF
KBED 312322Z 0100/0124 30014G24KT P6SM SKC
     FM010400 30010KT P6SM SKC
     FM010800 27005KT P6SM FEW250
     FM011700 29009KT P6SM SCT130
     FM011800 30010KT P6SM BKN025
     FM011900 30009KT P6SM BKN120
     FM012300 32005KT P6SM BKN100=

USA.gov is the U.S. government's official web portal to all federal, state and local government web resources and services.